createdAt,value
2023-03-15T00:00:21.944Z,0.70
2023-03-15T00:02:48.740Z,0.63
2023-03-15T00:05:15.560Z,0.82
2023-03-15T00:07:42.310Z,0.95
2023-03-15T00:10:09.474Z,0.90
2023-03-15T00:12:36.133Z,0.60
2023-03-15T00:15:03.252Z,1.00
2023-03-15T00:17:30.501Z,0.70
2023-03-15T00:19:57.510Z,0.65
2023-03-15T00:22:24.223Z,0.82
2023-03-15T00:24:50.932Z,0.80
2023-03-15T00:27:17.588Z,0.95
2023-03-15T00:29:44.328Z,0.82
2023-03-15T00:32:11.008Z,0.80
2023-03-15T00:34:37.784Z,0.90
2023-03-15T00:37:04.494Z,0.90
2023-03-15T00:39:31.678Z,0.80
2023-03-15T00:41:58.392Z,0.70
2023-03-15T00:44:25.142Z,0.80
2023-03-15T00:46:51.974Z,0.70
2023-03-15T00:49:18.789Z,0.77
2023-03-15T00:51:45.447Z,0.90
2023-03-15T00:54:13.878Z,0.80
2023-03-15T00:56:41.373Z,0.75
2023-03-15T00:59:08.593Z,1.08
2023-03-15T01:01:35.444Z,0.70
2023-03-15T01:04:02.432Z,0.63
2023-03-15T01:06:29.270Z,1.05
2023-03-15T01:08:57.037Z,0.73
2023-03-15T01:11:25.571Z,1.05
2023-03-15T01:13:53.024Z,0.70
2023-03-15T01:16:19.853Z,0.90
2023-03-15T01:18:46.591Z,0.75
2023-03-15T01:21:14.433Z,0.88
2023-03-15T01:23:41.429Z,0.60
2023-03-15T01:26:10.017Z,0.80
2023-03-15T01:28:37.112Z,0.95
2023-03-15T01:31:05.678Z,0.73
2023-03-15T01:33:32.412Z,1.13
2023-03-15T01:36:07.316Z,1.00
2023-03-15T01:38:34.550Z,0.50
2023-03-15T01:41:01.549Z,0.73
2023-03-15T01:43:28.884Z,0.50
2023-03-15T01:46:23.642Z,0.80
2023-03-15T01:48:56.791Z,0.75
2023-03-15T01:51:27.628Z,0.90
2023-03-15T01:53:58.505Z,0.68
2023-03-15T01:56:25.442Z,0.80
2023-03-15T01:58:52.396Z,0.70
2023-03-15T02:01:20.353Z,0.50
2023-03-15T02:03:47.710Z,0.80
2023-03-15T02:06:18.087Z,0.85
2023-03-15T02:08:56.577Z,0.80
2023-03-15T02:11:24.986Z,0.80
2023-03-15T02:13:51.674Z,0.80
2023-03-15T02:16:18.665Z,0.70
2023-03-15T02:18:45.427Z,0.80
2023-03-15T02:21:39.684Z,0.93
2023-03-15T02:24:28.766Z,1.13
2023-03-15T02:26:56.300Z,0.70
2023-03-15T02:29:24.453Z,0.70
2023-03-15T02:31:51.410Z,0.80
2023-03-15T02:34:18.202Z,0.90
2023-03-15T02:36:44.872Z,1.00
2023-03-15T02:39:16.335Z,0.70
2023-03-15T02:41:45.063Z,0.57
2023-03-15T02:44:13.859Z,0.90
2023-03-15T02:46:41.222Z,0.70
2023-03-15T02:49:07.932Z,0.70
2023-03-15T02:51:34.870Z,0.90
2023-03-15T02:54:01.546Z,1.00
2023-03-15T02:56:28.240Z,0.90
2023-03-15T02:58:54.918Z,0.75
2023-03-15T03:01:21.611Z,0.60
2023-03-15T03:03:48.490Z,0.90
2023-03-15T03:06:15.790Z,0.85
2023-03-15T03:08:47.403Z,0.90
2023-03-15T03:11:14.848Z,0.85
2023-03-15T03:13:42.836Z,0.77
2023-03-15T03:16:10.079Z,0.82
2023-03-15T03:18:37.185Z,0.85
2023-03-15T03:21:05.150Z,0.80
2023-03-15T03:23:32.028Z,0.70
2023-03-15T03:25:58.713Z,0.90
2023-03-15T03:28:26.948Z,0.70
2023-03-15T03:30:54.010Z,0.75
2023-03-15T03:33:21.248Z,0.93
2023-03-15T03:35:48.227Z,0.80
2023-03-15T03:38:15.375Z,1.00
2023-03-15T03:40:43.216Z,0.98
2023-03-15T03:43:09.945Z,0.80
2023-03-15T03:45:36.618Z,0.73
2023-03-15T03:48:03.431Z,1.00
2023-03-15T03:50:30.133Z,0.80
2023-03-15T03:52:56.839Z,0.98
2023-03-15T03:55:25.253Z,0.80
2023-03-15T03:57:53.041Z,0.60
2023-03-15T04:00:20.431Z,0.80
2023-03-15T04:02:47.366Z,0.90
2023-03-15T04:05:15.323Z,1.25
2023-03-15T04:07:42.062Z,0.80
2023-03-15T04:10:09.496Z,0.88
2023-03-15T04:12:36.226Z,0.60
2023-03-15T04:15:03.429Z,1.10
2023-03-15T04:17:30.484Z,0.73
2023-03-15T04:19:58.057Z,0.90
2023-03-15T04:22:24.780Z,0.80
2023-03-15T04:24:51.532Z,0.80
2023-03-15T04:27:18.256Z,0.85
2023-03-15T04:29:45.838Z,0.88
2023-03-15T04:32:12.532Z,0.82
2023-03-15T04:34:39.397Z,0.80
2023-03-15T04:37:06.309Z,0.70
2023-03-15T04:39:33.163Z,0.90
2023-03-15T04:41:59.981Z,0.88
2023-03-15T04:44:27.095Z,0.60
2023-03-15T04:46:55.021Z,0.77
2023-03-15T04:49:21.956Z,0.90
2023-03-15T04:51:48.699Z,1.00
2023-03-15T04:54:15.622Z,0.98
2023-03-15T04:56:42.429Z,1.00
2023-03-15T04:59:10.592Z,0.80
2023-03-15T05:01:37.514Z,0.90
2023-03-15T05:04:04.323Z,0.80
2023-03-15T05:06:31.071Z,0.85
2023-03-15T05:08:57.834Z,0.88
2023-03-15T05:11:24.683Z,0.60
2023-03-15T05:13:51.448Z,0.63
2023-03-15T05:16:18.882Z,0.90
2023-03-15T05:18:45.615Z,1.02
2023-03-15T05:21:13.140Z,1.00
2023-03-15T05:23:39.992Z,0.93
2023-03-15T05:26:06.761Z,0.80
2023-03-15T05:28:33.448Z,1.10
2023-03-15T05:31:02.513Z,0.70
2023-03-15T05:33:29.373Z,0.90
2023-03-15T05:35:56.475Z,0.88
2023-03-15T05:38:26.565Z,0.90
2023-03-15T05:40:54.021Z,0.90
2023-03-15T05:43:21.580Z,0.68
2023-03-15T05:45:48.974Z,0.95
2023-03-15T05:48:16.821Z,0.75
2023-03-15T05:50:43.632Z,0.60
2023-03-15T05:53:10.605Z,0.90
2023-03-15T05:55:37.395Z,0.80
2023-03-15T05:58:04.242Z,0.90
2023-03-15T06:00:31.373Z,1.02
2023-03-15T06:02:58.073Z,0.82
2023-03-15T06:05:24.892Z,0.75
2023-03-15T06:07:52.164Z,1.00
2023-03-15T06:10:20.552Z,1.00
2023-03-15T06:12:47.366Z,1.00
2023-03-15T06:15:14.024Z,1.20
2023-03-15T06:17:40.738Z,0.90
2023-03-15T06:20:07.813Z,0.98
2023-03-15T06:22:34.864Z,0.95
2023-03-15T06:25:03.459Z,1.00
2023-03-15T06:27:30.247Z,1.00
2023-03-15T06:29:57.512Z,0.98
2023-03-15T06:32:24.422Z,0.90
2023-03-15T06:34:52.047Z,0.90
2023-03-15T06:37:34.258Z,1.10
2023-03-15T06:40:07.162Z,1.08
2023-03-15T06:42:33.930Z,1.23
2023-03-15T06:45:01.151Z,0.77
2023-03-15T06:47:28.025Z,1.20
2023-03-15T06:49:56.768Z,0.90
2023-03-15T06:52:23.704Z,0.73
2023-03-15T06:54:51.876Z,0.90
2023-03-15T06:57:20.470Z,0.75
2023-03-15T06:59:47.184Z,0.95
2023-03-15T07:02:15.286Z,0.90
2023-03-15T07:04:42.036Z,0.82
2023-03-15T07:07:08.845Z,0.77
2023-03-15T07:09:35.572Z,1.00
2023-03-15T07:12:02.242Z,1.00
2023-03-15T07:14:28.960Z,1.00
2023-03-15T07:16:55.654Z,0.88
2023-03-15T07:19:22.809Z,0.90
2023-03-15T07:21:51.924Z,0.85
2023-03-15T07:24:19.714Z,1.02
2023-03-15T07:26:46.497Z,1.00
2023-03-15T07:29:13.205Z,1.10
2023-03-15T07:31:39.935Z,0.95
2023-03-15T07:34:06.608Z,1.00
2023-03-15T07:36:33.358Z,0.90
2023-03-15T07:39:00.035Z,0.90
2023-03-15T07:41:26.732Z,0.90
2023-03-15T07:43:53.433Z,1.20
2023-03-15T07:46:21.826Z,0.90
2023-03-15T07:48:49.353Z,1.00
2023-03-15T07:51:16.553Z,1.00
2023-03-15T07:53:43.290Z,1.10
2023-03-15T07:56:09.956Z,0.90
2023-03-15T07:58:36.685Z,1.23
2023-03-15T08:01:03.411Z,1.13
2023-03-15T08:03:30.194Z,0.98
2023-03-15T08:05:57.016Z,1.00
2023-03-15T08:08:23.702Z,1.67
2023-03-15T08:10:51.739Z,1.58
2023-03-15T08:13:20.256Z,1.10
2023-03-15T08:15:47.395Z,1.00
2023-03-15T08:18:14.458Z,0.95
2023-03-15T08:20:41.190Z,1.40
2023-03-15T08:23:09.113Z,0.88
2023-03-15T08:25:40.571Z,1.17
2023-03-15T08:28:07.306Z,1.17
2023-03-15T08:30:34.033Z,0.95
2023-03-15T08:33:00.864Z,0.80
2023-03-15T08:35:27.720Z,0.75
2023-03-15T08:37:54.455Z,1.00
2023-03-15T08:40:25.192Z,0.93
2023-03-15T08:42:53.027Z,0.95
2023-03-15T08:45:21.541Z,1.15
2023-03-15T08:47:48.752Z,1.23
2023-03-15T08:50:17.298Z,1.20
2023-03-15T08:52:44.011Z,0.90
2023-03-15T08:55:10.935Z,1.35
2023-03-15T08:57:37.641Z,0.90
2023-03-15T09:00:17.497Z,1.17
2023-03-15T09:02:44.379Z,1.00
2023-03-15T09:05:12.082Z,0.90
2023-03-15T09:07:42.860Z,1.20
2023-03-15T09:10:10.722Z,1.15
2023-03-15T09:12:37.443Z,0.70
2023-03-15T09:15:05.555Z,1.00
2023-03-15T09:17:33.659Z,0.98
2023-03-15T09:20:00.318Z,1.15
2023-03-15T09:22:38.907Z,1.08
2023-03-15T09:25:09.742Z,1.08
2023-03-15T09:27:36.843Z,1.00
2023-03-15T09:30:03.932Z,0.90
2023-03-15T09:32:36.175Z,1.30
2023-03-15T09:35:07.547Z,1.17
2023-03-15T09:37:34.694Z,1.02
2023-03-15T09:40:02.033Z,1.30
2023-03-15T09:42:35.124Z,1.23
2023-03-15T09:45:07.057Z,1.05
2023-03-15T09:47:46.293Z,1.20
2023-03-15T09:50:22.021Z,1.23
2023-03-15T09:53:03.422Z,1.20
2023-03-15T09:55:30.491Z,1.40
2023-03-15T09:58:04.814Z,1.40
2023-03-15T10:00:50.142Z,1.45
2023-03-15T10:03:52.320Z,1.67
2023-03-15T10:06:36.471Z,1.55
2023-03-15T10:09:10.899Z,2.00
2023-03-15T10:12:08.252Z,1.55
2023-03-15T10:14:47.348Z,1.75
2023-03-15T10:17:19.731Z,1.67
2023-03-15T10:19:52.306Z,2.10
2023-03-15T10:22:25.988Z,1.70
2023-03-15T10:25:06.668Z,1.75
2023-03-15T10:27:55.027Z,1.95
2023-03-15T10:30:23.915Z,1.73
2023-03-15T10:33:15.604Z,2.53
2023-03-15T10:35:43.034Z,2.15
2023-03-15T10:38:17.029Z,2.58
2023-03-15T10:40:46.499Z,1.83
2023-03-15T10:43:17.428Z,1.80
2023-03-15T10:45:47.485Z,1.90
2023-03-15T10:48:14.178Z,2.00
2023-03-15T10:50:40.934Z,1.73
2023-03-15T10:53:11.268Z,1.90
2023-03-15T10:55:44.213Z,1.77
2023-03-15T10:58:34.620Z,1.67
2023-03-15T11:01:09.740Z,1.52
2023-03-15T11:03:37.105Z,1.88
2023-03-15T11:06:17.744Z,2.08
2023-03-15T11:08:44.512Z,1.95
2023-03-15T11:11:11.380Z,2.13
2023-03-15T11:13:39.207Z,1.70
2023-03-15T11:16:07.483Z,1.98
2023-03-15T11:18:49.686Z,1.92
2023-03-15T11:21:17.557Z,1.67
2023-03-15T11:23:46.447Z,1.92
2023-03-15T11:26:31.486Z,1.73
2023-03-15T11:29:05.903Z,1.75
2023-03-15T11:31:32.646Z,1.90
2023-03-15T11:34:08.355Z,1.45
2023-03-15T11:36:37.110Z,1.38
2023-03-15T11:39:04.773Z,1.80
2023-03-15T11:41:35.015Z,1.50
2023-03-15T11:44:21.837Z,1.70
2023-03-15T11:47:16.841Z,1.70
2023-03-15T11:49:51.433Z,1.70
2023-03-15T11:52:20.823Z,1.90
2023-03-15T11:54:48.481Z,1.65
2023-03-15T11:57:45.220Z,1.70
2023-03-15T12:00:35.245Z,1.92
2023-03-15T12:03:22.929Z,1.73
2023-03-15T12:05:53.320Z,2.05
2023-03-15T12:08:25.319Z,1.67
2023-03-15T12:10:53.706Z,1.50
2023-03-15T12:13:24.443Z,1.90
2023-03-15T12:15:52.813Z,1.55
2023-03-15T12:18:28.063Z,1.80
2023-03-15T12:21:21.802Z,1.50
2023-03-15T12:23:55.170Z,1.50
2023-03-15T12:26:40.576Z,1.50
2023-03-15T12:29:16.348Z,2.03
2023-03-15T12:31:59.375Z,1.80
2023-03-15T12:34:30.079Z,1.40
2023-03-15T12:37:05.310Z,1.50
2023-03-15T12:39:50.677Z,1.65
2023-03-15T12:42:32.521Z,1.40
2023-03-15T12:45:34.875Z,1.70
2023-03-15T12:48:02.349Z,1.58
2023-03-15T12:50:50.898Z,2.15
2023-03-15T12:53:28.436Z,1.40
2023-03-15T12:56:06.185Z,1.55
2023-03-15T12:58:38.225Z,1.45
2023-03-15T13:01:06.356Z,1.40
2023-03-15T13:03:35.268Z,2.10
2023-03-15T13:06:35.170Z,2.80
2023-03-15T13:09:18.704Z,2.08
2023-03-15T13:12:01.146Z,2.10
2023-03-15T13:14:33.563Z,1.70
2023-03-15T13:17:17.422Z,1.90
2023-03-15T13:19:45.844Z,2.10
2023-03-15T13:22:24.478Z,2.03
2023-03-15T13:25:13.076Z,1.70
2023-03-15T13:27:48.394Z,1.77
2023-03-15T13:30:32.101Z,1.65
2023-03-15T13:33:04.874Z,1.65
2023-03-15T13:35:31.637Z,1.92
2023-03-15T13:38:27.867Z,2.25
2023-03-15T13:40:56.030Z,2.00
2023-03-15T13:43:27.806Z,1.80
2023-03-15T13:45:57.962Z,1.90
2023-03-15T13:48:35.638Z,2.20
2023-03-15T13:51:07.896Z,2.15
2023-03-15T13:53:48.625Z,1.85
2023-03-15T13:56:21.560Z,1.52
2023-03-15T13:58:48.390Z,1.48
2023-03-15T14:01:15.562Z,2.10
2023-03-15T14:03:43.756Z,2.03
2023-03-15T14:06:13.919Z,2.20
2023-03-15T14:08:40.698Z,2.15
2023-03-15T14:11:37.123Z,2.00
2023-03-15T14:14:19.826Z,1.67
2023-03-15T14:17:03.025Z,1.90
2023-03-15T14:19:31.399Z,2.10
2023-03-15T14:21:59.925Z,2.08
2023-03-15T14:24:32.195Z,2.08
2023-03-15T14:27:00.550Z,2.17
2023-03-15T14:29:30.008Z,2.03
2023-03-15T14:32:08.220Z,1.65
2023-03-15T14:34:37.148Z,2.03
2023-03-15T14:37:09.765Z,1.88
2023-03-15T14:39:41.785Z,1.85
2023-03-15T14:42:12.104Z,1.70
2023-03-15T14:44:38.908Z,2.13
2023-03-15T14:47:13.105Z,1.70
2023-03-15T14:49:39.830Z,1.70
2023-03-15T14:52:07.224Z,1.83
2023-03-15T14:54:34.055Z,1.83
2023-03-15T14:57:00.821Z,2.00
2023-03-15T14:59:27.756Z,1.70
2023-03-15T15:01:57.462Z,1.52
2023-03-15T15:04:24.304Z,1.90
2023-03-15T15:06:52.209Z,1.95
2023-03-15T15:09:23.518Z,1.65
2023-03-15T15:11:51.104Z,1.80
2023-03-15T15:14:17.851Z,1.55
2023-03-15T15:16:44.677Z,1.58
2023-03-15T15:19:11.655Z,1.98
2023-03-15T15:21:38.492Z,1.58
2023-03-15T15:24:07.529Z,1.80
2023-03-15T15:26:34.510Z,1.67
2023-03-15T15:29:01.258Z,1.85
2023-03-15T15:31:28.394Z,1.63
2023-03-15T15:33:57.363Z,1.55
2023-03-15T15:36:32.758Z,1.75
2023-03-15T15:39:05.758Z,1.58
2023-03-15T15:41:33.327Z,1.33
2023-03-15T15:44:00.315Z,1.63
2023-03-15T15:46:27.911Z,1.80
2023-03-15T15:48:55.542Z,1.25
2023-03-15T15:51:39.657Z,1.52
2023-03-15T15:54:06.680Z,1.45
2023-03-15T15:56:35.341Z,1.55
2023-03-15T15:59:04.275Z,1.10
2023-03-15T16:01:31.557Z,1.30
2023-03-15T16:03:58.886Z,1.40
2023-03-15T16:06:27.579Z,1.20
2023-03-15T16:08:54.761Z,1.35
2023-03-15T16:11:22.038Z,1.20
2023-03-15T16:13:50.969Z,1.30
2023-03-15T16:16:17.940Z,1.40
2023-03-15T16:18:44.956Z,1.17
2023-03-15T16:21:17.595Z,1.52
2023-03-15T16:23:45.561Z,1.50
2023-03-15T16:26:15.328Z,1.30
2023-03-15T16:28:43.493Z,1.13
2023-03-15T16:31:12.380Z,1.35
2023-03-15T16:33:39.209Z,1.10
2023-03-15T16:36:06.187Z,1.48
2023-03-15T16:38:33.056Z,1.25
2023-03-15T16:41:00.303Z,1.33
2023-03-15T16:43:28.967Z,1.20
2023-03-15T16:45:56.954Z,1.40
2023-03-15T16:48:23.932Z,1.10
2023-03-15T16:50:52.307Z,1.13
2023-03-15T16:53:19.394Z,1.20
2023-03-15T16:55:46.167Z,1.45
2023-03-15T16:58:21.721Z,1.50
2023-03-15T17:00:48.660Z,1.45
2023-03-15T17:03:16.324Z,1.20
2023-03-15T17:05:44.484Z,1.27
2023-03-15T17:08:12.855Z,1.65
2023-03-15T17:10:39.838Z,1.60
2023-03-15T17:13:06.505Z,1.55
2023-03-15T17:15:33.193Z,1.65
2023-03-15T17:18:00.549Z,1.90
2023-03-15T17:20:28.418Z,1.77
2023-03-15T17:23:03.964Z,1.23
2023-03-15T17:25:31.555Z,1.40
2023-03-15T17:27:58.649Z,1.70
2023-03-15T17:30:29.934Z,1.45
2023-03-15T17:32:58.324Z,1.23
2023-03-15T17:35:33.650Z,1.40
2023-03-15T17:38:01.825Z,1.33
2023-03-15T17:40:30.639Z,1.58
2023-03-15T17:42:59.809Z,1.83
2023-03-15T17:45:33.583Z,1.35
2023-03-15T17:48:00.787Z,1.45
2023-03-15T17:50:29.881Z,1.50
2023-03-15T17:53:04.824Z,1.20
2023-03-15T17:55:34.977Z,1.30
2023-03-15T17:58:02.748Z,1.30
2023-03-15T18:00:32.569Z,1.67
2023-03-15T18:03:00.870Z,1.38
2023-03-15T18:05:29.120Z,1.40
2023-03-15T18:08:00.548Z,1.33
2023-03-15T18:10:36.247Z,1.73
2023-03-15T18:13:03.225Z,1.42
2023-03-15T18:15:30.720Z,2.00
2023-03-15T18:17:57.460Z,1.30
2023-03-15T18:20:24.364Z,1.25
2023-03-15T18:22:51.213Z,1.38
2023-03-15T18:25:20.913Z,1.50
2023-03-15T18:27:47.790Z,1.50
2023-03-15T18:30:16.004Z,1.25
2023-03-15T18:32:42.800Z,1.63
2023-03-15T18:35:18.928Z,1.50
2023-03-15T18:37:45.869Z,2.00
2023-03-15T18:40:13.785Z,1.90
2023-03-15T18:42:41.274Z,1.67
2023-03-15T18:45:11.326Z,1.63
2023-03-15T18:47:38.013Z,1.33
2023-03-15T18:50:10.490Z,1.30
2023-03-15T18:52:37.751Z,1.15
2023-03-15T18:55:07.692Z,1.60
2023-03-15T18:57:35.692Z,2.30
2023-03-15T19:00:12.972Z,3.05
2023-03-15T19:02:41.256Z,2.40
2023-03-15T19:05:08.467Z,2.15
2023-03-15T19:07:35.353Z,2.30
2023-03-15T19:10:03.289Z,1.92
2023-03-15T19:12:30.066Z,2.53
2023-03-15T19:14:56.729Z,2.03
2023-03-15T19:17:23.465Z,1.77
2023-03-15T19:19:50.219Z,2.00
2023-03-15T19:22:17.250Z,1.65
2023-03-15T19:24:44.002Z,2.42
2023-03-15T19:27:10.725Z,1.50
2023-03-15T19:29:37.383Z,1.58
2023-03-15T19:32:05.117Z,2.35
2023-03-15T19:34:33.393Z,2.05
2023-03-15T19:37:01.121Z,1.85
2023-03-15T19:39:27.778Z,1.63
2023-03-15T19:41:54.432Z,1.45
2023-03-15T19:44:22.536Z,1.80
2023-03-15T19:46:49.949Z,2.33
2023-03-15T19:49:16.798Z,1.67
2023-03-15T19:51:43.532Z,1.42
2023-03-15T19:54:10.581Z,2.10
2023-03-15T19:56:37.303Z,1.83
2023-03-15T19:59:05.396Z,2.05
2023-03-15T20:01:33.585Z,1.80
2023-03-15T20:04:00.447Z,1.65
2023-03-15T20:06:27.555Z,1.98
2023-03-15T20:08:54.337Z,1.95
2023-03-15T20:11:25.071Z,1.80
2023-03-15T20:13:53.080Z,1.77
2023-03-15T20:16:20.844Z,1.70
2023-03-15T20:18:51.016Z,2.15
2023-03-15T20:21:18.218Z,2.20
2023-03-15T20:23:45.564Z,1.40
2023-03-15T20:26:13.258Z,1.27
2023-03-15T20:28:40.542Z,1.52
2023-03-15T20:31:17.597Z,1.05
2023-03-15T20:33:45.597Z,1.45
2023-03-15T20:36:12.413Z,1.80
2023-03-15T20:38:39.210Z,1.50
2023-03-15T20:41:06.550Z,1.40
2023-03-15T20:43:35.311Z,1.30
2023-03-15T20:46:03.418Z,1.70
2023-03-15T20:48:31.760Z,1.50
2023-03-15T20:50:58.701Z,1.60
2023-03-15T20:53:26.539Z,1.30
2023-03-15T20:55:53.543Z,1.55
2023-03-15T20:58:21.327Z,1.42
2023-03-15T21:00:48.225Z,1.20
2023-03-15T21:03:15.485Z,1.33
2023-03-15T21:05:45.811Z,1.30
2023-03-15T21:08:13.074Z,1.60
2023-03-15T21:10:39.825Z,1.75
2023-03-15T21:13:11.094Z,1.70
2023-03-15T21:15:46.846Z,1.40
2023-03-15T21:18:16.706Z,1.50
2023-03-15T21:20:43.670Z,1.55
2023-03-15T21:23:10.902Z,1.30
2023-03-15T21:25:37.765Z,1.48
2023-03-15T21:28:05.507Z,1.85
2023-03-15T21:30:32.935Z,1.15
2023-03-15T21:33:00.104Z,1.58
2023-03-15T21:35:27.034Z,1.67
2023-03-15T21:37:53.793Z,1.30
2023-03-15T21:40:20.600Z,1.27
2023-03-15T21:42:47.862Z,1.15
2023-03-15T21:45:14.805Z,1.42
2023-03-15T21:47:41.534Z,1.45
2023-03-15T21:50:12.611Z,1.38
2023-03-15T21:52:39.349Z,1.30
2023-03-15T21:55:08.124Z,1.30
2023-03-15T21:57:34.871Z,1.25
2023-03-15T22:00:01.657Z,1.52
2023-03-15T22:02:28.340Z,1.50
2023-03-15T22:04:55.085Z,1.50
2023-03-15T22:07:21.839Z,1.33
2023-03-15T22:09:48.536Z,1.30
2023-03-15T22:12:15.670Z,1.50
2023-03-15T22:14:42.477Z,1.38
2023-03-15T22:17:09.439Z,1.42
2023-03-15T22:19:37.817Z,1.27
2023-03-15T22:22:05.121Z,1.45
2023-03-15T22:24:33.997Z,1.50
2023-03-15T22:27:00.932Z,1.42
2023-03-15T22:29:28.066Z,1.30
2023-03-15T22:31:54.797Z,1.65
2023-03-15T22:34:21.503Z,1.60
2023-03-15T22:36:48.249Z,1.65
2023-03-15T22:39:14.966Z,1.50
2023-03-15T22:41:41.668Z,1.50
2023-03-15T22:44:10.038Z,1.48
2023-03-15T22:46:37.316Z,1.58
2023-03-15T22:49:04.701Z,1.75
2023-03-15T22:51:31.424Z,1.38
2023-03-15T22:53:58.088Z,1.17
2023-03-15T22:56:24.863Z,1.30
2023-03-15T22:58:55.420Z,1.42
2023-03-15T23:01:22.124Z,1.35
2023-03-15T23:03:48.924Z,1.38
2023-03-15T23:06:15.567Z,1.15
2023-03-15T23:08:42.642Z,1.40
2023-03-15T23:11:10.176Z,1.20
2023-03-15T23:13:37.236Z,1.20
2023-03-15T23:16:05.446Z,1.60
2023-03-15T23:18:34.417Z,1.40
2023-03-15T23:21:06.142Z,1.40
2023-03-15T23:23:32.876Z,1.20
2023-03-15T23:25:59.623Z,1.50
2023-03-15T23:28:26.425Z,1.42
2023-03-15T23:30:53.170Z,1.30
2023-03-15T23:33:19.987Z,1.35
2023-03-15T23:35:46.741Z,1.65
2023-03-15T23:38:13.643Z,1.50
2023-03-15T23:40:41.145Z,1.30
2023-03-15T23:43:10.275Z,1.30
2023-03-15T23:45:36.999Z,1.00
2023-03-15T23:48:03.710Z,1.30
2023-03-15T23:50:31.182Z,1.15
2023-03-15T23:52:58.153Z,1.20
2023-03-15T23:55:24.946Z,1.23
2023-03-15T23:57:51.695Z,1.05
